MET'MAP v2.0
soon released !

Expected late october,
this new version will be
more efficient, smarter,
and hosted on a brand new
server x3 powerfull...
...and still free !


Not compatible ?
Try the mobile version !

LOG IN : | Subscribe | Disclaimer | Who is Orbifly ? |
ICAO code :

TAF - EDDV Hanover/Langenhagen Int. - 23 Nov 2019 02:42 UTC - Data Source NOAA   


- Airport Elevation : 183 ft
- IATA code : HAJ
- No reported NOTAMs.


EDDV - Hanover/Langenhagen Int.

Latest METAR recorded : 2015/08/11 07:50 EDDV 110750Z 30008KT 9999 BKN006 19/18 Q1017 BECMG SCT030
TAF COR TAF EDDV
Valid from the 23 at 00:00 until the 24 at 00:00 UTC


222301Z 2300/2324 10006KT 7000 BKN006
TEMPO 2300/2309 2500 BR BKN004
PROB40
TEMPO 2300/2308 0500 FG BKN001
PROB30
TEMPO 2300/2305 SCT006
BECMG 2308/2311 10011KT BKN012
TEMPO 2310/2316 10015G25KT
TEMPO 2311/2320 BKN015
TEMPO 2320/2324 4000 BR BKN008

Source NOAA


MET'MAP, your aeronautical weather chart ! - Copyright ORBIFLY December 2007

Programming & Development : Alexandra Zaïnal
Co-Developer : Marc-Olivier Méhu
Technical & hardware support : Manuel Goepfert
Concept & Financing : Baudouin d'Aumeries